Time;durP1;ratioP1;P1;durP2;ratioP2;P2;SDS_P1;SDS_P2;PMS_P1;PMS_P2;Temp;Humidity;BMP_temperature;BMP_pressure;BME280_temperature;BME280_humidity;BME280_pressure;Samples;Min_cycle;Max_cycle;Signal;HPM_P1;HPM_P2
2022/05/24 00:00:25;;;;;;;6.07;1.75;;;;;;;18.25;26.85;98263.25;5152101;27;20035;-63
2022/05/24 00:02:51;;;;;;;2.50;1.30;;;;;;;18.24;26.72;98269.63;5152759;27;20080;-63
2022/05/24 00:05:17;;;;;;;3.30;1.70;;;;;;;18.20;26.70;98261.19;5152783;27;20083;-64
2022/05/24 00:07:43;;;;;;;3.35;1.65;;;;;;;18.23;26.44;98263.44;5156918;27;20037;-63
2022/05/24 00:10:13;;;;;;;4.72;1.88;;;;;;;18.19;26.52;98270.22;5156988;27;20489;-63
2022/05/24 00:12:39;;;;;;;3.23;1.50;;;;;;;18.21;26.63;98262.00;5156540;27;20519;-63
2022/05/24 00:15:27;;;;;;;3.80;1.42;;;;;;;18.20;26.67;98257.69;5156266;27;20272;-63
2022/05/24 00:18:06;;;;;;;3.20;1.65;;;;;;;18.19;26.71;98253.34;5156572;27;20536;-63
2022/05/24 00:20:35;;;;;;;2.88;1.52;;;;;;;18.17;26.55;98264.25;5156994;27;20078;-64
2022/05/24 00:23:02;;;;;;;4.10;1.60;;;;;;;18.16;26.84;98265.28;5157002;27;20050;-63
2022/05/24 00:25:34;;;;;;;3.35;1.48;;;;;;;18.17;26.68;98269.59;5156727;27;20027;-63
2022/05/24 00:28:01;;;;;;;3.72;1.70;;;;;;;18.15;26.75;98267.13;5156387;27;20038;-63
2022/05/24 00:30:27;;;;;;;3.90;1.55;;;;;;;18.15;26.64;98272.50;5154824;27;20075;-61
2022/05/24 00:32:52;;;;;;;6.75;1.63;;;;;;;18.13;26.63;98266.50;5153176;27;20038;-62
2022/05/24 00:35:18;;;;;;;2.58;1.52;;;;;;;18.13;26.78;98269.19;5157075;27;20032;-63
2022/05/24 00:37:45;;;;;;;2.67;1.67;;;;;;;18.13;26.70;98263.84;5156309;27;20172;-62
2022/05/24 00:40:20;;;;;;;5.57;1.45;;;;;;;18.12;26.53;98262.19;5155753;27;20038;-63
2022/05/24 00:42:47;;;;;;;5.05;1.45;;;;;;;18.11;26.91;98270.41;5156355;27;20065;-62
2022/05/24 00:45:24;;;;;;;3.83;1.30;;;;;;;18.12;26.54;98269.41;5154087;27;20037;-62
2022/05/24 00:47:55;;;;;;;3.97;1.50;;;;;;;18.11;26.78;98270.41;5157234;27;20090;-63
2022/05/24 00:50:26;;;;;;;2.78;1.50;;;;;;;18.09;26.66;98267.94;5157644;27;20047;-63
2022/05/24 00:53:14;;;;;;;5.22;1.75;;;;;;;18.07;26.73;98270.00;5157439;27;20110;-63
2022/05/24 00:55:49;;;;;;;2.58;1.70;;;;;;;18.08;26.88;98270.81;5144427;27;20177;-63
2022/05/24 00:58:23;;;;;;;5.03;1.55;;;;;;;18.07;26.99;98269.16;5136871;27;20436;-63
2022/05/24 01:00:49;;;;;;;2.90;1.10;;;;;;;18.04;26.95;98262.38;5154895;27;20034;-63
2022/05/24 01:03:15;;;;;;;3.15;1.48;;;;;;;18.06;27.06;98264.84;5156906;27;20550;-64
2022/05/24 01:05:43;;;;;;;5.22;1.60;;;;;;;18.07;26.73;98269.16;5157173;27;20038;-63
2022/05/24 01:08:10;;;;;;;3.03;1.60;;;;;;;18.05;27.13;98264.03;5157246;27;20034;-63
2022/05/24 01:10:48;;;;;;;2.95;1.60;;;;;;;18.05;26.89;98266.69;5156469;27;20034;-63
2022/05/24 01:13:26;;;;;;;1.88;1.33;;;;;;;18.04;26.93;98262.38;5138809;27;20074;-64
2022/05/24 01:15:52;;;;;;;3.13;1.70;;;;;;;18.03;27.04;98262.56;5153861;27;20030;-64
2022/05/24 01:18:21;;;;;;;2.58;1.33;;;;;;;18.04;26.72;98261.53;5156779;27;20461;-63
2022/05/24 01:20:53;;;;;;;4.32;1.60;;;;;;;18.04;26.89;98264.22;5157081;27;20034;-63
2022/05/24 01:23:37;;;;;;;3.38;1.50;;;;;;;18.02;26.92;98260.91;5156246;27;20373;-63
2022/05/24 01:26:41;;;;;;;2.42;1.60;;;;;;;18.01;26.85;98256.59;5147125;27;20091;-63
2022/05/24 01:29:08;;;;;;;3.33;1.75;;;;;;;17.99;26.97;98262.97;5117157;27;20082;-63
2022/05/24 01:37:07;;;;;;;4.57;1.50;;;;;;;17.99;26.98;98268.34;5149517;27;20045;-63
2022/05/24 01:39:33;;;;;;;3.15;2.00;;;;;;;17.98;26.96;98271.19;5154382;27;20075;-62
2022/05/24 01:41:59;;;;;;;3.53;1.35;;;;;;;17.98;27.29;98271.19;5152410;27;20039;-63
2022/05/24 01:44:32;;;;;;;2.67;1.65;;;;;;;17.98;26.83;98266.69;5156019;27;20512;-63
2022/05/24 01:46:59;;;;;;;2.17;1.20;;;;;;;17.97;27.04;98272.19;5156681;27;20035;-63
2022/05/24 01:49:29;;;;;;;5.40;1.67;;;;;;;17.97;27.06;98274.84;5147078;27;20049;-62
2022/05/24 01:52:07;;;;;;;4.22;1.52;;;;;;;17.96;26.77;98270.53;5138654;27;20362;-63
2022/05/24 01:54:39;;;;;;;8.68;1.95;;;;;;;17.97;26.77;98275.72;5130165;27;20080;-63
2022/05/24 01:57:16;;;;;;;4.22;1.58;;;;;;;17.97;27.06;98272.19;5156825;27;20045;-63
2022/05/24 01:59:45;;;;;;;3.65;1.60;;;;;;;17.96;26.85;98276.72;5156277;27;20382;-63
2022/05/24 02:02:11;;;;;;;1.98;1.20;;;;;;;17.95;26.85;98277.75;5155831;27;20042;-63
2022/05/24 02:04:37;;;;;;;4.03;1.58;;;;;;;17.96;26.80;98283.91;5155604;27;20034;-62
2022/05/24 02:07:15;;;;;;;2.83;1.48;;;;;;;17.97;26.89;98275.72;5155938;27;20049;-63
2022/05/24 02:09:46;;;;;;;3.03;1.40;;;;;;;17.95;26.77;98277.75;5142082;27;20122;-63
2022/05/24 02:12:17;;;;;;;4.80;1.33;;;;;;;17.97;26.76;98272.19;5152480;27;20113;-63
2022/05/24 02:14:50;;;;;;;;;;;;;;;17.91;27.37;98268.47;5151348;27;20031;-63
2022/05/24 02:17:49;;;;;;;2.80;1.13;;;;;;;17.94;26.98;98270.75;5147558;27;19925;-63
2022/05/24 02:20:19;;;;;;;2.30;1.10;;;;;;;17.94;26.71;98268.06;5155257;27;20400;-63
2022/05/24 02:22:48;;;;;;;2.63;1.15;;;;;;;17.96;27.03;98268.69;5155204;27;20039;-63
2022/05/24 02:25:30;;;;;;;2.15;1.20;;;;;;;17.97;26.75;98262.34;5155480;27;20038;-64
2022/05/24 02:27:56;;;;;;;2.28;1.30;;;;;;;17.99;26.98;98284.38;5140938;27;20477;-64
2022/05/24 02:30:24;;;;;;;5.22;1.27;;;;;;;18.02;27.03;98279.63;5134727;27;20118;-63
2022/05/24 02:32:50;;;;;;;1.77;0.98;;;;;;;18.03;27.08;98278.63;5148217;27;20507;-63
2022/05/24 02:35:16;;;;;;;2.97;1.40;;;;;;;18.04;26.90;98282.94;5150802;27;20035;-63
2022/05/24 02:37:41;;;;;;;7.15;1.40;;;;;;;18.04;26.65;98286.47;5154949;27;20065;-63
2022/05/24 02:42:53;;;;;;;2.97;1.33;;;;;;;18.07;26.82;98283.41;5155786;27;20045;-63
2022/05/24 02:45:19;;;;;;;2.85;1.40;;;;;;;18.08;26.89;98290.41;5155396;27;20030;-63
2022/05/24 02:47:44;;;;;;;3.28;1.50;;;;;;;18.10;26.85;98290.19;5147151;27;20481;-63
2022/05/24 02:50:11;;;;;;;3.33;1.20;;;;;;;18.11;26.68;98281.13;5151188;27;20515;-63
2022/05/24 02:52:38;;;;;;;2.03;1.10;;;;;;;18.12;27.11;98280.09;5154871;27;20034;-63
2022/05/24 02:55:04;;;;;;;3.28;1.30;;;;;;;18.14;26.82;98270.84;5147376;27;20106;-63
2022/05/24 02:57:30;;;;;;;3.53;1.42;;;;;;;18.16;26.82;98273.31;5150479;27;20109;-63
2022/05/24 02:59:55;;;;;;;8.10;1.42;;;;;;;18.15;27.23;98269.81;5152576;27;20118;-63
2022/05/24 03:02:21;;;;;;;5.18;1.83;;;;;;;18.20;27.04;98276.44;5139117;27;20109;-63
2022/05/24 03:04:46;;;;;;;3.22;1.35;;;;;;;18.22;26.96;98271.69;5154402;27;20145;-62
2022/05/24 03:09:56;;;;;;;5.22;1.27;;;;;;;18.27;27.33;98278.09;5147437;27;20447;-63
2022/05/24 03:15:06;;;;;;;3.78;2.00;;;;;;;18.28;27.35;98277.06;5154185;27;20099;-63
2022/05/24 03:17:32;;;;;;;3.47;1.40;;;;;;;18.32;27.31;98280.16;5154040;27;20055;-62
2022/05/24 03:19:58;;;;;;;4.15;1.65;;;;;;;18.32;27.40;98274.81;5153898;27;20041;-63
2022/05/24 03:22:23;;;;;;;3.60;1.55;;;;;;;18.34;27.25;98278.13;5154256;27;20046;-63
2022/05/24 03:24:49;;;;;;;4.47;1.65;;;;;;;18.36;27.54;98283.25;5146781;27;20042;-63
2022/05/24 03:27:15;;;;;;;3.05;1.60;;;;;;;18.39;27.49;98288.22;5138563;27;20045;-63
2022/05/24 03:29:42;;;;;;;2.22;1.40;;;;;;;18.38;27.14;98278.53;5153770;27;20041;-63
2022/05/24 03:32:09;;;;;;;5.25;1.98;;;;;;;18.36;27.15;98276.06;5153073;27;20092;-62
2022/05/24 03:34:36;;;;;;;5.00;1.75;;;;;;;18.36;27.31;98280.56;5143448;27;20091;-62
2022/05/24 03:37:01;;;;;;;3.45;2.33;;;;;;;18.38;27.65;98286.56;5153740;27;20065;-63
2022/05/24 03:39:27;;;;;;;3.45;1.70;;;;;;;18.35;27.43;98276.25;5152930;27;20456;-63
2022/05/24 03:41:52;;;;;;;6.95;1.88;;;;;;;18.36;27.58;98280.56;5143710;27;20031;-63
2022/05/24 03:44:19;;;;;;;2.78;1.70;;;;;;;18.34;27.54;98283.47;5145472;27;20049;-63
2022/05/24 03:46:45;;;;;;;4.90;1.60;;;;;;;18.34;27.45;98266.56;5153904;27;20034;-63
2022/05/24 03:49:11;;;;;;;2.28;1.35;;;;;;;18.32;27.46;98264.09;5153671;27;20062;-63
2022/05/24 03:51:36;;;;;;;2.38;1.55;;;;;;;18.32;27.18;98273.97;5154464;27;20065;-63
2022/05/24 03:54:02;;;;;;;3.28;1.77;;;;;;;18.30;27.14;98252.75;5153715;27;20034;-64
2022/05/24 03:56:28;;;;;;;5.97;1.88;;;;;;;18.30;27.27;98263.47;5153901;27;20030;-63
2022/05/24 03:58:53;;;;;;;4.80;2.45;;;;;;;18.27;26.86;98266.53;5153613;27;20049;-63
2022/05/24 04:01:19;;;;;;;5.07;1.58;;;;;;;18.28;27.13;98273.56;5153810;27;20489;-63
2022/05/24 04:03:44;;;;;;;3.95;1.60;;;;;;;18.27;27.04;98285.28;5144113;27;20405;-64
2022/05/24 04:06:10;;;;;;;5.13;1.75;;;;;;;18.27;26.94;98280.78;5142695;27;20043;-63
2022/05/24 04:08:36;;;;;;;3.75;1.48;;;;;;;18.26;27.24;98279.13;5138756;27;20404;-63
2022/05/24 04:11:10;;;;;;;4.38;1.90;;;;;;;18.26;26.91;98283.63;5154070;27;20041;-64
2022/05/24 04:13:38;;;;;;;4.63;1.52;;;;;;;18.26;26.94;98281.81;5154211;27;20072;-63
2022/05/24 04:16:05;;;;;;;6.28;1.95;;;;;;;18.26;26.98;98287.16;5154023;27;20489;-63
2022/05/24 04:18:31;;;;;;;3.22;1.50;;;;;;;18.25;27.02;98280.16;5153350;27;20074;-64
2022/05/24 04:20:57;;;;;;;3.30;1.77;;;;;;;18.27;27.12;98277.25;5153790;27;20045;-63
2022/05/24 04:23:26;;;;;;;3.55;1.85;;;;;;;18.28;26.89;98278.91;5153831;27;20038;-63
2022/05/24 04:25:54;;;;;;;3.70;1.77;;;;;;;18.29;27.03;98273.38;5144640;27;20534;-63
2022/05/24 04:28:20;;;;;;;4.57;1.42;;;;;;;18.33;27.39;98278.28;5133061;27;20042;-63
2022/05/24 04:30:47;;;;;;;3.63;1.73;;;;;;;18.33;27.46;98276.47;5152979;27;20022;-64
2022/05/24 04:33:14;;;;;;;3.97;1.60;;;;;;;18.38;26.92;98278.53;5153893;27;20054;-64
2022/05/24 04:35:40;;;;;;;7.50;3.05;;;;;;;18.38;27.07;98279.34;5154936;27;20030;-64
2022/05/24 04:38:06;;;;;;;8.93;1.85;;;;;;;18.41;26.83;98275.44;5173151;27;20389;-63
2022/05/24 04:43:15;;;;;;;4.50;1.40;;;;;;;18.49;26.93;98272.56;5154088;27;20037;-62
2022/05/24 04:45:40;;;;;;;4.07;1.80;;;;;;;18.52;26.92;98272.16;5135924;27;20039;-63
2022/05/24 04:48:06;;;;;;;2.60;1.60;;;;;;;18.54;26.86;98263.91;5133155;28;20496;-62
2022/05/24 04:50:32;;;;;;;6.88;2.00;;;;;;;18.54;26.84;98267.44;5151052;27;20030;-62
2022/05/24 04:52:58;;;;;;;3.92;1.67;;;;;;;18.56;26.75;98262.69;5157320;27;20176;-63
2022/05/24 04:55:26;;;;;;;4.38;1.70;;;;;;;18.59;26.66;98259.63;5153075;27;20129;-64
2022/05/24 04:57:53;;;;;;;3.55;1.30;;;;;;;18.63;27.55;98256.50;5157120;27;20035;-62
2022/05/24 05:00:20;;;;;;;5.50;1.80;;;;;;;18.69;27.00;98253.03;5157201;27;20034;-63
2022/05/24 05:02:46;;;;;;;3.08;1.50;;;;;;;18.78;27.01;98259.00;5157225;27;20095;-62
2022/05/24 05:05:13;;;;;;;5.13;1.50;;;;;;;18.85;27.26;98257.97;5156363;27;20034;-63
2022/05/24 05:07:40;;;;;;;6.22;1.58;;;;;;;18.89;26.86;98256.53;5157138;27;20041;-63
2022/05/24 05:10:07;;;;;;;2.08;1.30;;;;;;;18.95;26.89;98249.56;5150288;27;20031;-62
2022/05/24 05:12:32;;;;;;;2.45;1.20;;;;;;;18.99;26.87;98244.59;5154795;27;20038;-62
2022/05/24 05:14:58;;;;;;;8.02;1.20;;;;;;;19.04;26.71;98250.19;5148995;27;20509;-62
2022/05/24 05:17:24;;;;;;;2.58;1.52;;;;;;;19.06;26.97;98250.78;5136425;27;20055;-62
2022/05/24 05:19:49;;;;;;;3.45;1.30;;;;;;;19.08;26.65;98245.22;5150762;27;20041;-62
2022/05/24 05:22:16;;;;;;;3.80;1.38;;;;;;;19.10;26.49;98254.69;5157199;27;20030;-62
2022/05/24 05:24:41;;;;;;;3.65;1.33;;;;;;;19.13;26.17;98251.59;5156918;27;20036;-62
2022/05/24 05:27:07;;;;;;;4.30;1.23;;;;;;;19.15;26.33;98256.75;5157074;27;20396;-62
2022/05/24 05:32:30;;;;;;;4.93;1.15;;;;;;;19.25;25.76;98251.81;5146830;27;20508;-62
2022/05/24 05:34:57;;;;;;;2.35;1.48;;;;;;;19.29;25.81;98250.31;5156146;27;20079;-63
2022/05/24 05:37:25;;;;;;;2.70;1.13;;;;;;;19.32;25.88;98254.47;5158857;27;20047;-64
2022/05/24 05:39:51;;;;;;;2.72;1.80;;;;;;;19.35;25.85;98245.97;5156705;27;20392;-63
2022/05/24 05:42:16;;;;;;;2.42;1.27;;;;;;;19.39;25.92;98249.91;5156770;27;20109;-64
2022/05/24 05:44:42;;;;;;;1.63;0.75;;;;;;;19.41;25.56;98250.53;5155992;27;20034;-63
2022/05/24 05:47:07;;;;;;;2.22;1.00;;;;;;;19.43;26.12;98248.44;5157203;27;20117;-63
2022/05/24 05:49:33;;;;;;;3.00;1.10;;;;;;;19.42;26.08;98238.75;5156433;27;20031;-63
2022/05/24 05:51:59;;;;;;;1.65;1.00;;;;;;;19.44;25.58;98252.78;5156629;27;20454;-63
2022/05/24 05:54:24;;;;;;;2.45;1.15;;;;;;;19.45;25.43;98250.91;5154496;27;20062;-63
2022/05/24 05:56:50;;;;;;;1.50;0.95;;;;;;;19.45;25.60;98243.72;5156389;27;20054;-63
2022/05/24 05:59:16;;;;;;;1.75;1.10;;;;;;;19.46;25.50;98241.84;5154918;27;20091;-62
2022/05/24 06:01:42;;;;;;;5.30;1.15;;;;;;;19.46;26.07;98256.09;5135287;27;20042;-63
2022/05/24 06:04:09;;;;;;;0.90;0.80;;;;;;;19.49;25.59;98250.28;5134261;27;20087;-63
2022/05/24 06:06:39;;;;;;;3.38;1.25;;;;;;;19.51;26.26;98253.56;5135958;27;20043;-63
2022/05/24 06:09:05;;;;;;;2.75;1.08;;;;;;;19.51;26.49;98258.94;5141635;27;20086;-63
2022/05/24 06:11:31;;;;;;;5.20;1.08;;;;;;;19.56;26.64;98254.81;5156172;27;20038;-63
2022/05/24 06:13:56;;;;;;;1.67;0.85;;;;;;;19.56;26.31;98255.63;5155560;27;20069;-63
2022/05/24 06:16:22;;;;;;;3.05;1.10;;;;;;;19.55;25.75;98245.13;5155773;27;20034;-63
2022/05/24 06:18:48;;;;;;;4.88;1.10;;;;;;;19.57;26.19;98245.72;5155246;27;20517;-64
2022/05/24 06:21:13;;;;;;;3.20;1.20;;;;;;;19.55;26.06;98245.97;5155537;27;20043;-63
2022/05/24 06:23:39;;;;;;;2.45;1.45;;;;;;;19.56;25.63;98249.44;5154845;27;20038;-63
2022/05/24 06:26:05;;;;;;;7.55;1.15;;;;;;;19.56;25.57;98252.94;5155840;27;20030;-63
2022/05/24 06:28:31;;;;;;;1.17;0.73;;;;;;;19.55;25.79;98227.19;5155696;27;20098;-63
2022/05/24 06:30:57;;;;;;;1.52;0.77;;;;;;;19.57;26.31;98238.50;5155606;27;20448;-63
2022/05/24 06:33:22;;;;;;;1.95;1.08;;;;;;;19.57;25.96;98246.53;5155464;27;20038;-63
2022/05/24 06:35:48;;;;;;;3.55;1.75;;;;;;;19.57;25.65;98251.09;5133586;27;20493;-64
2022/05/24 06:38:15;;;;;;;3.80;1.05;;;;;;;19.57;25.69;98240.38;5152734;27;20401;-63
2022/05/24 06:40:41;;;;;;;2.95;1.25;;;;;;;19.59;26.02;98236.44;5149441;27;20033;-64
2022/05/24 06:43:06;;;;;;;1.95;1.23;;;;;;;19.59;25.82;98236.44;5155180;27;20409;-63
2022/05/24 06:45:32;;;;;;;2.55;1.10;;;;;;;19.60;25.31;98243.44;5143172;27;20043;-63
2022/05/24 06:47:58;;;;;;;7.05;1.50;;;;;;;19.62;25.51;98244.06;5136072;27;20037;-63
2022/05/24 06:50:24;;;;;;;1.90;1.33;;;;;;;19.64;26.42;98231.25;5155353;27;20027;-63
2022/05/24 06:52:54;;;;;;;5.00;1.00;;;;;;;19.66;27.03;98241.78;5155192;27;20042;-63
2022/05/24 06:55:21;;;;;;;7.05;1.50;;;;;;;19.71;25.95;98251.88;5154653;27;20367;-63
2022/05/24 06:57:47;;;;;;;3.97;1.30;;;;;;;19.67;25.70;98251.47;5155278;27;20095;-63
2022/05/24 07:03:10;;;;;;;2.75;0.93;;;;;;;19.66;24.98;98260.56;5154902;27;20424;-63
2022/05/24 07:05:36;;;;;;;5.78;1.10;;;;;;;19.67;25.43;98272.94;5154579;27;20041;-63
2022/05/24 07:08:02;;;;;;;4.40;1.05;;;;;;;19.65;25.25;98275.00;5136020;27;20386;-63
2022/05/24 07:10:30;;;;;;;6.47;1.15;;;;;;;19.67;25.30;98267.56;5155033;27;20025;-63
2022/05/24 07:12:59;;;;;;;4.28;1.33;;;;;;;19.66;26.16;98268.59;5153879;27;20438;-63
2022/05/24 07:15:26;;;;;;;1.17;0.80;;;;;;;19.66;25.80;98276.66;5154491;27;20038;-63
2022/05/24 07:17:51;;;;;;;2.55;1.10;;;;;;;19.63;25.47;98256.44;5154479;27;20051;-64
2022/05/24 07:20:17;;;;;;;1.92;1.20;;;;;;;19.62;25.58;98270.09;5154231;27;20039;-63
2022/05/24 07:22:42;;;;;;;2.85;1.30;;;;;;;19.61;26.21;98274.59;5154844;27;20113;-64
2022/05/24 07:25:08;;;;;;;2.10;1.23;;;;;;;19.62;26.72;98267.41;5150206;27;20123;-64
2022/05/24 07:27:34;;;;;;;2.05;1.33;;;;;;;19.64;26.40;98276.88;5144259;27;20076;-63
2022/05/24 07:29:59;;;;;;;3.10;1.08;;;;;;;19.64;26.03;98284.09;5134679;27;20030;-63
2022/05/24 07:32:25;;;;;;;2.88;1.10;;;;;;;19.64;25.94;98271.50;5154386;27;20065;-63
2022/05/24 07:34:50;;;;;;;3.05;1.42;;;;;;;19.66;25.83;98287.38;5154572;27;20034;-64
2022/05/24 07:37:17;;;;;;;1.95;1.08;;;;;;;19.64;25.38;98276.03;5169769;27;20061;-64
2022/05/24 07:39:43;;;;;;;2.00;1.30;;;;;;;19.62;25.63;98288.88;5164986;27;20034;-64
2022/05/24 07:47:19;;;;;;;2.70;1.65;;;;;;;19.60;24.99;98301.66;5154462;27;20451;-64
2022/05/24 07:49:44;;;;;;;5.35;1.55;;;;;;;19.61;25.20;98300.63;5154164;27;20031;-64
2022/05/24 07:52:10;;;;;;;2.60;1.30;;;;;;;19.59;25.07;98298.13;5154402;27;20035;-63
2022/05/24 07:54:36;;;;;;;3.38;1.48;;;;;;;19.61;25.52;98301.44;5153330;27;20094;-63
2022/05/24 07:57:03;;;;;;;1.92;1.30;;;;;;;19.62;26.27;98300.41;5154219;27;20462;-63
2022/05/24 07:59:28;;;;;;;3.85;1.30;;;;;;;19.63;25.95;98309.31;5154159;27;20382;-64
2022/05/24 08:01:54;;;;;;;9.32;1.90;;;;;;;19.64;25.43;98310.91;5154448;27;20046;-64
2022/05/24 08:04:20;;;;;;;3.72;1.60;;;;;;;19.62;26.04;98319.19;5154143;27;20065;-64
2022/05/24 08:06:46;;;;;;;2.35;1.55;;;;;;;19.62;25.78;98313.81;5153735;27;20529;-63
2022/05/24 08:09:11;;;;;;;4.63;1.35;;;;;;;19.62;26.13;98326.44;5132496;27;20039;-62
2022/05/24 08:11:37;;;;;;;4.97;1.42;;;;;;;19.61;26.10;98335.50;5151248;27;20485;-63
2022/05/24 08:14:03;;;;;;;3.63;1.45;;;;;;;19.60;25.96;98331.19;5152848;27;20155;-63
2022/05/24 08:16:31;;;;;;;4.43;1.42;;;;;;;19.60;26.04;98339.22;5148516;27;20060;-63
2022/05/24 08:18:58;;;;;;;4.90;1.45;;;;;;;19.58;26.23;98358.19;5152160;27;20404;-64
2022/05/24 08:21:25;;;;;;;2.03;1.20;;;;;;;19.55;26.38;98373.91;5148822;27;20070;-63
2022/05/24 08:23:50;;;;;;;3.75;1.50;;;;;;;19.51;26.27;98366.25;5150926;27;20042;-64
2022/05/24 08:26:16;;;;;;;4.90;1.60;;;;;;;19.49;26.11;98378.25;5148250;27;20026;-65
2022/05/24 08:28:43;;;;;;;4.97;1.90;;;;;;;19.46;26.47;98371.44;5156563;27;20477;-64
2022/05/24 08:31:09;;;;;;;5.90;1.60;;;;;;;19.46;26.42;98382.16;5157378;27;20071;-65
2022/05/24 08:33:34;;;;;;;4.50;1.30;;;;;;;19.46;26.74;98394.75;5155004;27;20038;-66
2022/05/24 08:36:00;;;;;;;4.30;1.58;;;;;;;19.44;26.93;98392.28;5154985;27;20040;-64
2022/05/24 08:38:28;;;;;;;5.75;1.70;;;;;;;19.44;27.01;98403.00;5155070;27;20058;-65
2022/05/24 08:40:59;;;;;;;4.22;1.52;;;;;;;19.43;26.85;98412.09;5151243;27;20062;-62
2022/05/24 08:43:45;;;;;;;5.40;1.70;;;;;;;19.41;27.00;98410.66;5154499;27;20037;-65
2022/05/24 08:49:03;;;;;;;6.72;1.85;;;;;;;19.38;27.16;98419.91;5156365;27;20032;-64
2022/05/24 08:51:42;;;;;;;6.18;1.88;;;;;;;19.40;27.81;98423.22;5151920;27;20042;-63
2022/05/24 08:54:15;;;;;;;5.00;1.52;;;;;;;19.40;27.64;98427.78;5141699;27;20579;-62
2022/05/24 08:56:51;;;;;;;3.17;1.63;;;;;;;19.39;27.93;98418.06;5150691;27;20035;-63
2022/05/24 08:59:28;;;;;;;6.43;1.73;;;;;;;19.38;27.92;98435.19;5153524;27;20519;-63
2022/05/24 09:01:54;;;;;;;8.07;1.67;;;;;;;19.36;27.81;98416.59;5155479;27;20030;-63
2022/05/24 09:04:19;;;;;;;4.05;1.60;;;;;;;19.35;27.55;98431.88;5149808;27;20035;-63
2022/05/24 09:06:57;;;;;;;4.53;1.63;;;;;;;19.35;27.49;98441.78;5136560;27;20096;-63
2022/05/24 09:09:37;;;;;;;2.35;1.25;;;;;;;19.35;27.68;98447.13;5141836;27;20022;-63
2022/05/24 09:12:21;;;;;;;4.40;1.17;;;;;;;19.33;27.74;98449.22;5156729;27;20035;-63
2022/05/24 09:14:56;;;;;;;3.03;1.70;;;;;;;19.33;27.84;98451.91;5156767;27;20023;-63
2022/05/24 09:17:40;;;;;;;6.22;1.58;;;;;;;19.32;27.70;98460.97;5156777;27;20050;-62
2022/05/24 09:20:11;;;;;;;4.55;1.25;;;;;;;19.33;27.79;98466.13;5156889;27;20026;-64
2022/05/24 09:22:37;;;;;;;3.42;1.40;;;;;;;19.33;27.58;98468.81;5156490;27;20041;-63
2022/05/24 09:25:04;;;;;;;2.28;1.58;;;;;;;19.33;28.15;98471.50;5156963;27;20492;-63
2022/05/24 09:27:49;;;;;;;3.53;1.23;;;;;;;19.34;28.15;98480.34;5156880;27;20489;-63
2022/05/24 09:30:26;;;;;;;3.97;2.72;;;;;;;19.35;28.16;98473.94;5144719;27;20072;-63
2022/05/24 09:32:51;;;;;;;7.60;4.07;;;;;;;19.35;28.33;98469.44;5136199;27;20031;-63
2022/05/24 09:35:18;;;;;;;10.15;3.65;;;;;;;19.39;28.28;98477.06;5136029;27;20397;-63
2022/05/24 09:37:46;;;;;;;13.52;4.50;;;;;;;19.41;28.36;98477.69;5134634;27;20088;-63
2022/05/24 09:40:21;;;;;;;14.95;6.38;;;;;;;19.43;28.62;98489.03;5146220;27;20027;-63
2022/05/24 09:42:48;;;;;;;15.43;8.32;;;;;;;19.42;29.15;98487.38;5156541;27;20128;-63
2022/05/24 09:45:23;;;;;;;14.25;7.50;;;;;;;19.44;29.66;98509.47;5156300;27;20035;-63
2022/05/24 09:47:49;;;;;;;12.25;6.63;;;;;;;19.45;30.04;98522.69;5156607;27;20037;-63
2022/05/24 09:50:32;;;;;;;15.68;10.23;;;;;;;19.46;30.85;98521.66;5156324;27;20419;-63
2022/05/24 09:53:15;;;;;;;9.48;4.90;;;;;;;19.48;30.62;98516.09;5156042;27;20034;-63
2022/05/24 09:55:59;;;;;;;8.27;5.80;;;;;;;19.47;30.01;98523.31;5149451;27;20034;-63
2022/05/24 09:58:35;;;;;;;18.85;12.10;;;;;;;19.47;31.94;98520.63;5156065;27;20561;-63
2022/05/24 10:01:08;;;;;;;11.00;5.45;;;;;;;19.49;31.25;98533.84;5132626;27;20374;-63
2022/05/24 10:03:40;;;;;;;12.73;7.15;;;;;;;19.46;31.59;98523.50;5155029;27;20038;-63
2022/05/24 10:06:14;;;;;;;;;;;;;;;19.43;31.38;98534.63;5143861;27;20027;-63
2022/05/24 10:08:50;;;;;;;12.68;3.75;;;;;;;19.43;30.43;98519.38;5141670;27;19915;-64
2022/05/24 10:12:11;;;;;;;5.88;3.47;;;;;;;19.46;30.02;98527.03;5156241;27;20027;-63
2022/05/24 10:14:51;;;;;;;4.72;3.00;;;;;;;19.44;29.81;98529.09;5051542;28;20575;-64
2022/05/24 10:17:47;;;;;;;5.70;3.05;;;;;;;19.46;29.53;98529.72;5142498;27;20042;-64
2022/05/24 10:20:34;;;;;;;4.18;2.15;;;;;;;19.48;29.09;98527.63;5149555;27;20038;-63
2022/05/24 10:23:34;;;;;;;5.70;2.83;;;;;;;19.51;28.86;98527.22;5136538;27;20027;-64
2022/05/24 10:26:18;;;;;;;4.65;3.00;;;;;;;19.53;29.19;98537.78;5115270;27;20034;-66
2022/05/24 10:28:58;;;;;;;9.13;3.10;;;;;;;19.52;29.00;98542.28;5147914;27;20470;-66
2022/05/24 10:31:53;;;;;;;6.32;2.50;;;;;;;19.56;28.67;98541.88;5154036;27;20068;-65
2022/05/24 10:38:17;;;;;;;5.55;2.03;;;;;;;19.53;28.47;98540.44;5147661;27;20070;-65
2022/05/24 10:41:18;;;;;;;3.05;1.85;;;;;;;19.52;28.16;98546.84;5148389;27;20066;-65
2022/05/24 10:43:59;;;;;;;7.13;1.77;;;;;;;19.52;28.39;98565.63;5148178;27;20489;-65
2022/05/24 10:47:06;;;;;;;8.18;1.98;;;;;;;19.51;28.10;98564.78;5148735;27;20026;-64
2022/05/24 10:50:08;;;;;;;6.75;2.13;;;;;;;19.50;27.72;98565.00;5148695;27;20738;-65
2022/05/24 10:52:42;;;;;;;4.30;2.85;;;;;;;19.49;28.01;98566.03;5098265;27;20249;-65
2022/05/24 10:55:42;;;;;;;6.53;1.35;;;;;;;19.50;27.86;98573.84;5148117;27;20079;-64
2022/05/24 10:58:11;;;;;;;6.03;1.77;;;;;;;19.51;27.96;98580.88;5125276;27;20047;-64
2022/05/24 11:00:40;;;;;;;5.63;2.05;;;;;;;19.51;28.30;98580.88;5152851;27;20034;-64
2022/05/24 11:03:30;;;;;;;6.07;2.03;;;;;;;19.51;28.16;98580.88;5155115;27;20081;-65
2022/05/24 11:06:05;;;;;;;4.75;1.80;;;;;;;19.50;27.90;98579.22;5154103;27;20163;-64
2022/05/24 11:08:51;;;;;;;5.45;1.80;;;;;;;19.52;28.06;98589.78;5140967;27;20037;-66
2022/05/24 11:11:35;;;;;;;4.15;1.90;;;;;;;19.51;28.28;98588.94;5132445;27;20030;-66
2022/05/24 11:14:07;;;;;;;4.72;1.90;;;;;;;19.53;28.38;98583.38;5150153;27;20026;-65
2022/05/24 11:16:39;;;;;;;5.30;1.85;;;;;;;19.55;28.53;98589.38;5150267;27;20508;-66
2022/05/24 11:19:22;;;;;;;7.50;1.85;;;;;;;19.55;28.59;98584.00;5154607;27;20058;-66
2022/05/24 11:22:10;;;;;;;2.95;1.50;;;;;;;19.55;28.33;98583.16;5153938;27;20038;-65
2022/05/24 11:25:05;;;;;;;4.75;2.67;;;;;;;19.56;28.57;98584.81;5154774;27;20083;-64
2022/05/24 11:27:40;;;;;;;2.38;1.30;;;;;;;19.55;28.52;98588.53;5154750;27;20022;-65
2022/05/24 11:30:08;;;;;;;3.67;1.48;;;;;;;19.56;28.24;98590.19;5154331;27;20026;-64
2022/05/24 11:32:39;;;;;;;4.80;1.40;;;;;;;19.55;28.39;98600.09;5155006;27;20046;-64
2022/05/24 11:35:08;;;;;;;4.65;1.27;;;;;;;19.54;28.26;98595.78;5154651;27;20113;-66
2022/05/24 11:37:41;;;;;;;5.15;1.98;;;;;;;19.52;28.35;98597.81;5154500;27;20060;-64
2022/05/24 11:40:30;;;;;;;8.95;1.90;;;;;;;19.51;28.29;98606.91;5154196;27;20031;-64
2022/05/24 11:43:03;;;;;;;4.60;1.30;;;;;;;19.49;27.80;98617.81;5154023;27;20038;-64
2022/05/24 11:45:29;;;;;;;2.58;1.15;;;;;;;19.46;27.70;98612.03;5154182;27;20041;-65
2022/05/24 11:48:07;;;;;;;3.25;1.10;;;;;;;19.45;27.59;98616.59;5154180;27;20046;-65
2022/05/24 11:50:39;;;;;;;3.60;1.52;;;;;;;19.44;27.53;98617.59;5154598;27;20439;-64
2022/05/24 11:53:34;;;;;;;4.47;1.48;;;;;;;19.42;27.70;98614.28;5154786;27;20049;-65
2022/05/24 11:56:01;;;;;;;4.05;1.13;;;;;;;19.41;27.85;98620.69;5147508;27;20050;-65
2022/05/24 11:58:30;;;;;;;1.50;1.08;;;;;;;19.44;27.83;98630.19;5154389;27;20031;-65
2022/05/24 12:01:01;;;;;;;4.40;1.20;;;;;;;19.42;27.81;98629.53;5154614;27;20542;-65
2022/05/24 12:09:20;;;;;;;3.25;1.25;;;;;;;19.33;27.74;98632.41;5138082;27;20030;-65
2022/05/24 12:11:46;;;;;;;2.53;0.95;;;;;;;19.32;27.97;98636.13;5137525;27;20042;-65
2022/05/24 12:14:33;;;;;;;6.72;1.25;;;;;;;19.32;27.86;98640.69;5137467;27;20462;-65
2022/05/24 12:17:01;;;;;;;2.40;1.10;;;;;;;19.31;27.87;98636.34;5137220;27;20067;-65
2022/05/24 12:19:32;;;;;;;3.40;1.17;;;;;;;19.29;27.77;98633.03;5137323;27;20034;-65
2022/05/24 12:22:11;;;;;;;4.30;0.82;;;;;;;19.29;27.33;98641.88;5137575;27;20043;-65
2022/05/24 12:24:36;;;;;;;4.60;0.98;;;;;;;19.28;27.59;98650.13;5137075;27;20038;-65
2022/05/24 12:27:10;;;;;;;1.95;0.88;;;;;;;19.28;27.72;98647.47;5137661;27;20165;-65
2022/05/24 12:29:41;;;;;;;1.40;0.70;;;;;;;19.26;27.69;98644.16;5136865;27;20035;-65